Terminal Aerodrome Forecast
Issued by NWS

Home | Current Version | Previous Version | Graphics & Text | Print | Product List | Glossary On
Versions: 1 2 3 4 5 6 7 8 9 10 11 12 13 14 15 16 17 18 19 20 21 22 23 24 25 26 27 28
000
FTUS45 KGGW 252330
TAFGDV
TAF
KGDV 252330Z 2600/2624 27018G26KT P6SM OVC070
     FM260300 29015G23KT P6SM SCT060
     FM260800 28010KT P6SM FEW090
     FM261400 29015G23KT P6SM SCT100=

USA.gov is the U.S. government's official web portal to all federal, state and local government web resources and services.